Time;durP1;ratioP1;P1;durP2;ratioP2;P2;SDS_P1;SDS_P2;PMS_P1;PMS_P2;Temp;Humidity;BMP_temperature;BMP_pressure;BME280_temperature;BME280_humidity;BME280_pressure;Samples;Min_cycle;Max_cycle;Signal;HPM_P1;HPM_P2
2023/10/26 00:01:24;;;;;;;13.53;11.63;;;9.90;99.90;;;;;;5051541;28;20209;-61
2023/10/26 00:03:50;;;;;;;17.43;11.00;;;9.90;99.90;;;;;;5049371;28;20633;-61
2023/10/26 00:06:15;;;;;;;11.93;10.73;;;9.90;99.90;;;;;;5050804;28;20240;-62
2023/10/26 00:08:41;;;;;;;12.90;10.57;;;9.90;99.90;;;;;;5051306;28;20638;-62
2023/10/26 00:11:07;;;;;;;10.90;9.80;;;9.90;99.90;;;;;;5051239;28;20192;-62
2023/10/26 00:13:32;;;;;;;12.43;11.10;;;9.90;99.90;;;;;;5051791;28;20626;-61
2023/10/26 00:15:58;;;;;;;13.70;12.27;;;9.90;99.90;;;;;;5047838;28;20202;-62
2023/10/26 00:18:24;;;;;;;12.00;10.70;;;9.90;99.90;;;;;;5051407;28;20653;-62
2023/10/26 00:20:55;;;;;;;12.63;10.70;;;9.90;99.90;;;;;;5051446;28;20664;-60
2023/10/26 00:23:21;;;;;;;12.80;11.30;;;9.90;99.90;;;;;;5051144;28;20178;-61
2023/10/26 00:25:46;;;;;;;13.90;12.50;;;9.90;99.90;;;;;;5050765;28;20780;-61
2023/10/26 00:28:12;;;;;;;14.47;12.40;;;9.80;99.90;;;;;;5051080;28;20178;-61
2023/10/26 00:30:38;;;;;;;13.13;11.30;;;9.80;99.90;;;;;;5051568;28;20252;-63
2023/10/26 00:33:03;;;;;;;12.43;11.13;;;9.80;99.90;;;;;;5053563;28;20171;-61
2023/10/26 00:35:29;;;;;;;12.20;11.00;;;9.70;99.90;;;;;;5055035;28;20208;-61
2023/10/26 00:37:54;;;;;;;12.53;11.27;;;9.70;99.90;;;;;;5055176;28;20205;-62
2023/10/26 00:40:20;;;;;;;13.50;11.53;;;9.70;99.90;;;;;;5057888;28;20166;-62
2023/10/26 00:42:46;;;;;;;16.30;13.67;;;9.70;99.90;;;;;;5075465;28;20174;-59
2023/10/26 00:45:11;;;;;;;17.37;12.57;;;9.70;99.90;;;;;;5074860;28;20284;-61
2023/10/26 00:47:37;;;;;;;14.73;12.53;;;9.60;99.90;;;;;;5069236;28;20229;-61
2023/10/26 00:50:03;;;;;;;17.13;13.07;;;9.60;99.90;;;;;;5055167;28;20183;-60
2023/10/26 00:52:29;;;;;;;16.23;13.00;;;9.60;99.90;;;;;;5054821;28;20414;-61
2023/10/26 00:54:56;;;;;;;12.07;10.70;;;9.60;99.90;;;;;;5054796;28;20505;-60
2023/10/26 00:57:23;;;;;;;15.00;11.03;;;9.60;99.90;;;;;;5055086;28;20835;-60
2023/10/26 00:59:50;;;;;;;14.20;12.07;;;9.60;99.90;;;;;;5055108;28;20919;-60
2023/10/26 01:02:18;;;;;;;24.60;15.87;;;9.60;99.90;;;;;;5054767;28;20431;-60
2023/10/26 01:04:44;;;;;;;17.17;13.27;;;9.60;99.90;;;;;;5054471;28;20434;-60
2023/10/26 01:07:09;;;;;;;16.30;13.07;;;9.60;99.90;;;;;;5052774;28;20461;-61
2023/10/26 01:09:35;;;;;;;16.33;12.10;;;9.50;99.90;;;;;;5055104;28;20767;-61
2023/10/26 01:12:01;;;;;;;15.97;12.27;;;9.50;99.90;;;;;;5054416;28;20263;-63
2023/10/26 01:14:27;;;;;;;15.70;12.60;;;9.50;99.90;;;;;;5054494;28;20175;-61
2023/10/26 01:16:55;;;;;;;15.40;13.83;;;9.50;99.90;;;;;;5054332;28;20455;-58
2023/10/26 01:19:20;;;;;;;17.30;13.23;;;9.50;99.90;;;;;;5054264;28;20419;-59
2023/10/26 01:21:50;;;;;;;16.67;14.70;;;9.50;99.90;;;;;;5052433;28;20957;-59
2023/10/26 01:24:16;;;;;;;16.67;13.07;;;9.50;99.90;;;;;;5053924;28;20232;-59
2023/10/26 01:26:42;;;;;;;17.50;13.60;;;9.50;99.90;;;;;;5068006;28;20455;-61
2023/10/26 01:29:07;;;;;;;16.47;13.00;;;9.50;99.90;;;;;;5074184;28;20261;-62
2023/10/26 01:31:33;;;;;;;16.37;14.43;;;9.50;99.90;;;;;;5074175;28;20537;-62
2023/10/26 01:33:58;;;;;;;16.03;13.70;;;9.50;99.90;;;;;;5073978;28;20177;-61
2023/10/26 01:36:25;;;;;;;17.47;13.33;;;9.50;99.90;;;;;;5074013;28;20220;-59
2023/10/26 01:38:51;;;;;;;15.63;13.97;;;9.40;99.90;;;;;;5063339;28;20187;-58
2023/10/26 01:41:16;;;;;;;19.93;15.00;;;9.40;99.90;;;;;;5052546;28;20518;-58
2023/10/26 01:43:42;;;;;;;20.70;14.33;;;9.40;99.90;;;;;;5053192;28;20187;-61
2023/10/26 01:46:08;;;;;;;18.27;14.90;;;9.40;99.90;;;;;;5053807;28;20209;-58
2023/10/26 01:48:33;;;;;;;19.47;15.17;;;9.40;99.90;;;;;;5051711;28;20220;-64
2023/10/26 01:50:59;;;;;;;19.07;15.80;;;9.40;99.90;;;;;;5070748;28;20170;-58
2023/10/26 01:53:26;;;;;;;18.57;14.40;;;9.40;99.90;;;;;;5073692;28;20173;-60
2023/10/26 01:55:51;;;;;;;16.93;14.10;;;9.40;99.90;;;;;;5073430;28;20234;-64
2023/10/26 01:58:17;;;;;;;19.67;15.23;;;9.40;99.90;;;;;;5073644;28;20450;-62
2023/10/26 02:00:43;;;;;;;20.20;15.43;;;9.40;99.90;;;;;;5073463;28;20223;-61
2023/10/26 02:03:08;;;;;;;18.67;14.43;;;9.40;99.90;;;;;;5073362;28;20182;-61
2023/10/26 02:05:34;;;;;;;18.23;15.40;;;9.40;99.90;;;;;;5073100;28;20221;-61
2023/10/26 02:08:00;;;;;;;21.27;17.10;;;9.40;99.90;;;;;;5056492;28;20186;-63
2023/10/26 02:10:29;;;;;;;19.13;13.57;;;9.40;99.90;;;;;;5053226;28;20174;-61
2023/10/26 02:12:58;;;;;;;23.87;17.10;;;9.40;99.90;;;;;;5053404;28;20179;-61
2023/10/26 02:15:24;;;;;;;18.97;15.17;;;9.40;99.90;;;;;;5053029;28;20441;-60
2023/10/26 02:17:49;;;;;;;20.30;16.70;;;9.40;99.90;;;;;;5053006;28;20444;-58
2023/10/26 02:20:15;;;;;;;17.33;14.67;;;9.40;99.90;;;;;;5053237;28;20184;-58
2023/10/26 02:22:41;;;;;;;19.63;14.77;;;9.40;99.90;;;;;;5048030;28;20273;-62
2023/10/26 02:25:07;;;;;;;18.63;14.87;;;9.40;99.90;;;;;;5049784;28;20951;-60
2023/10/26 02:27:33;;;;;;;20.20;15.10;;;9.50;99.90;;;;;;5053033;28;20329;-61
2023/10/26 02:29:59;;;;;;;20.30;15.73;;;9.50;99.90;;;;;;5053356;28;20436;-61
2023/10/26 02:32:25;;;;;;;20.43;15.83;;;9.50;99.90;;;;;;5052845;28;20421;-61
2023/10/26 02:34:51;;;;;;;19.80;15.33;;;9.50;99.90;;;;;;5052653;28;20190;-61
2023/10/26 02:37:18;;;;;;;18.77;16.17;;;9.50;99.90;;;;;;5052854;28;20217;-63
2023/10/26 02:39:44;;;;;;;21.67;15.20;;;9.50;99.90;;;;;;5051117;28;20186;-62
2023/10/26 02:42:10;;;;;;;20.63;15.40;;;9.50;99.90;;;;;;5053110;28;20875;-61
2023/10/26 02:44:36;;;;;;;18.73;15.73;;;9.50;99.90;;;;;;5052505;28;20425;-62
2023/10/26 02:47:02;;;;;;;18.30;15.43;;;9.50;99.90;;;;;;5052667;28;20615;-60
2023/10/26 02:49:27;;;;;;;21.07;16.73;;;9.50;99.90;;;;;;5049888;28;20417;-61
2023/10/26 02:51:53;;;;;;;20.43;15.63;;;9.50;99.90;;;;;;5051697;28;20178;-61
2023/10/26 02:54:19;;;;;;;19.80;16.33;;;9.50;99.90;;;;;;5052071;28;20554;-61
2023/10/26 02:56:45;;;;;;;20.50;16.50;;;9.50;99.90;;;;;;5052334;28;20199;-64
2023/10/26 02:59:10;;;;;;;22.03;16.53;;;9.50;99.90;;;;;;5052253;28;20424;-60
2023/10/26 03:01:36;;;;;;;19.70;15.07;;;9.50;99.90;;;;;;5052061;28;20209;-61
2023/10/26 03:04:02;;;;;;;22.80;17.53;;;9.50;99.90;;;;;;5068293;28;20640;-61
2023/10/26 03:06:28;;;;;;;17.90;15.30;;;9.50;99.90;;;;;;5071964;28;20315;-60
2023/10/26 03:08:54;;;;;;;23.20;16.90;;;9.50;99.90;;;;;;5045716;28;21007;-62
2023/10/26 03:11:19;;;;;;;24.63;17.43;;;9.50;99.90;;;;;;5052309;28;20171;-61
2023/10/26 03:13:45;;;;;;;20.17;16.50;;;9.50;99.90;;;;;;5052139;28;20171;-63
2023/10/26 03:16:11;;;;;;;22.93;17.40;;;9.50;99.90;;;;;;5051926;28;20298;-59
2023/10/26 03:18:37;;;;;;;20.87;16.63;;;9.50;99.90;;;;;;5052230;28;20177;-61
2023/10/26 03:21:03;;;;;;;22.73;16.17;;;9.60;99.90;;;;;;5052012;28;20261;-59
2023/10/26 03:23:29;;;;;;;20.77;16.20;;;9.60;99.90;;;;;;5044566;28;20436;-58
2023/10/26 03:25:55;;;;;;;22.70;16.10;;;9.50;99.90;;;;;;5051710;28;20645;-61
2023/10/26 03:28:20;;;;;;;22.43;15.93;;;9.50;99.90;;;;;;5051848;28;20194;-61
2023/10/26 03:30:46;;;;;;;19.77;15.70;;;9.60;99.90;;;;;;5051798;28;20574;-61
2023/10/26 03:33:11;;;;;;;22.37;15.70;;;9.60;99.90;;;;;;5051669;28;20187;-63
2023/10/26 03:35:37;;;;;;;22.03;16.33;;;9.50;99.90;;;;;;5051577;28;20195;-61
2023/10/26 03:38:03;;;;;;;19.33;15.77;;;9.50;99.90;;;;;;5049479;28;20539;-62
2023/10/26 03:40:29;;;;;;;25.90;17.27;;;9.50;99.90;;;;;;5051009;28;20456;-61
2023/10/26 03:42:54;;;;;;;21.93;16.13;;;9.50;99.90;;;;;;5051568;28;20220;-61
2023/10/26 03:45:20;;;;;;;20.40;15.20;;;9.50;99.90;;;;;;5051258;28;20202;-61
2023/10/26 03:47:45;;;;;;;19.97;15.80;;;9.50;99.90;;;;;;5051616;28;20238;-59
2023/10/26 03:50:11;;;;;;;18.30;14.30;;;9.50;99.90;;;;;;5051423;28;20190;-61
2023/10/26 03:52:37;;;;;;;19.03;14.90;;;9.50;99.90;;;;;;5049125;28;20552;-61
2023/10/26 03:55:04;;;;;;;17.90;13.80;;;9.50;99.90;;;;;;5051154;28;20195;-61
2023/10/26 03:57:32;;;;;;;20.73;14.70;;;9.50;99.90;;;;;;5051419;28;20183;-58
2023/10/26 03:59:57;;;;;;;19.17;15.00;;;9.50;99.90;;;;;;5051191;28;20437;-61
2023/10/26 04:02:23;;;;;;;19.80;15.53;;;9.50;99.90;;;;;;5051072;28;20426;-61
2023/10/26 04:04:50;;;;;;;21.07;14.83;;;9.50;99.90;;;;;;5051259;28;20188;-62
2023/10/26 04:07:16;;;;;;;21.90;15.50;;;9.50;99.90;;;;;;5049406;28;20252;-61
2023/10/26 04:09:42;;;;;;;19.70;16.57;;;9.50;99.90;;;;;;5051836;28;20464;-62
2023/10/26 04:12:08;;;;;;;20.10;16.47;;;9.50;99.90;;;;;;5051336;28;20448;-62
2023/10/26 04:14:33;;;;;;;20.70;16.37;;;9.50;99.90;;;;;;5051669;28;20506;-59
2023/10/26 04:16:59;;;;;;;20.13;15.27;;;9.50;99.90;;;;;;5051396;28;20440;-62
2023/10/26 04:19:25;;;;;;;23.43;16.60;;;9.50;99.90;;;;;;5051322;28;20175;-62
2023/10/26 04:21:50;;;;;;;22.07;17.53;;;9.40;99.90;;;;;;5051229;28;20268;-63
2023/10/26 04:24:16;;;;;;;19.67;15.00;;;9.40;99.90;;;;;;5049588;28;20186;-61
2023/10/26 04:26:42;;;;;;;19.67;15.40;;;9.50;99.90;;;;;;5051573;28;20206;-62
2023/10/26 04:29:07;;;;;;;18.90;15.07;;;9.50;99.90;;;;;;5051182;28;20178;-62
2023/10/26 04:31:33;;;;;;;20.80;14.00;;;9.50;99.90;;;;;;5051138;28;20174;-61
2023/10/26 04:33:59;;;;;;;21.03;15.50;;;9.50;99.90;;;;;;5048915;28;20187;-63
2023/10/26 04:36:26;;;;;;;21.23;14.33;;;9.50;99.90;;;;;;5047710;28;20523;-62
2023/10/26 04:38:51;;;;;;;21.17;15.13;;;9.50;99.90;;;;;;5047533;28;20437;-61
2023/10/26 04:41:17;;;;;;;19.40;16.03;;;9.50;99.90;;;;;;5059799;28;20423;-62
2023/10/26 04:43:43;;;;;;;19.00;15.00;;;9.50;99.90;;;;;;5070974;28;20183;-64
2023/10/26 04:46:09;;;;;;;21.63;14.20;;;9.40;99.90;;;;;;5070681;28;20208;-62
2023/10/26 04:48:34;;;;;;;18.10;14.30;;;9.40;99.90;;;;;;5070882;28;20166;-62
2023/10/26 04:51:00;;;;;;;19.03;13.93;;;9.50;99.90;;;;;;5070911;28;20178;-62
2023/10/26 04:53:26;;;;;;;18.87;14.70;;;9.50;99.90;;;;;;5050117;28;20178;-60
2023/10/26 04:55:51;;;;;;;17.20;13.70;;;9.50;99.90;;;;;;5050530;28;20198;-63
2023/10/26 04:58:18;;;;;;;19.30;15.17;;;9.50;99.90;;;;;;5050553;28;20420;-63
2023/10/26 05:00:43;;;;;;;22.03;16.20;;;9.40;99.90;;;;;;5050482;28;20187;-62
2023/10/26 05:03:09;;;;;;;20.97;16.53;;;9.50;99.90;;;;;;5050476;28;20419;-63
2023/10/26 05:05:35;;;;;;;23.17;15.07;;;9.40;99.90;;;;;;5050512;28;20807;-62
2023/10/26 05:08:01;;;;;;;21.30;16.37;;;9.40;99.90;;;;;;5050844;28;20583;-63
2023/10/26 05:10:27;;;;;;;20.00;15.27;;;9.40;99.90;;;;;;5048606;28;20269;-63
2023/10/26 05:12:53;;;;;;;20.20;15.90;;;9.40;99.90;;;;;;5032578;28;20447;-62
2023/10/26 05:15:19;;;;;;;22.43;15.93;;;9.30;99.90;;;;;;5050477;28;20451;-62
2023/10/26 05:17:45;;;;;;;20.93;16.10;;;9.30;99.90;;;;;;5051763;28;20414;-61
2023/10/26 05:20:11;;;;;;;19.63;14.90;;;9.30;99.90;;;;;;5054235;28;20175;-61
2023/10/26 05:22:37;;;;;;;17.13;13.97;;;9.30;99.90;;;;;;5054178;28;20429;-62
2023/10/26 05:25:06;;;;;;;20.53;14.70;;;9.30;99.90;;;;;;5052146;28;20286;-62
2023/10/26 05:27:32;;;;;;;18.47;14.13;;;9.30;99.90;;;;;;5053927;28;20460;-62
2023/10/26 05:29:58;;;;;;;18.83;14.27;;;9.30;99.90;;;;;;5054169;28;20888;-62
2023/10/26 05:32:24;;;;;;;19.43;13.60;;;9.30;99.90;;;;;;5054148;28;20413;-62
2023/10/26 05:34:50;;;;;;;21.20;14.53;;;9.30;99.90;;;;;;5053919;28;20516;-64
2023/10/26 05:37:16;;;;;;;20.70;15.03;;;9.30;99.90;;;;;;5054071;28;20227;-63
2023/10/26 05:39:41;;;;;;;18.93;14.03;;;9.20;99.90;;;;;;5054176;28;20544;-62
2023/10/26 05:42:07;;;;;;;18.03;13.33;;;9.30;99.90;;;;;;5047815;28;20846;-62
2023/10/26 05:44:32;;;;;;;17.83;13.07;;;9.30;99.90;;;;;;5051236;28;20179;-62
2023/10/26 05:46:59;;;;;;;19.10;14.47;;;9.30;99.90;;;;;;5054670;28;20203;-63
2023/10/26 05:49:25;;;;;;;23.03;13.70;;;9.30;99.90;;;;;;5063808;28;20182;-61
2023/10/26 05:51:51;;;;;;;19.20;13.53;;;9.30;99.90;;;;;;5073735;28;20425;-61
2023/10/26 05:54:16;;;;;;;17.50;13.83;;;9.20;99.90;;;;;;5053528;28;20445;-62
2023/10/26 05:56:42;;;;;;;17.87;14.57;;;9.30;99.90;;;;;;5054349;28;20285;-62
2023/10/26 05:59:08;;;;;;;17.57;13.27;;;9.20;99.90;;;;;;5036093;28;20268;-62
2023/10/26 06:01:33;;;;;;;17.73;14.10;;;9.30;99.90;;;;;;5054224;28;20227;-61
2023/10/26 06:03:59;;;;;;;16.80;12.67;;;9.30;99.90;;;;;;5053562;28;20193;-61
2023/10/26 06:06:24;;;;;;;18.23;13.93;;;9.30;99.90;;;;;;5053312;28;20213;-64
2023/10/26 06:08:50;;;;;;;15.17;13.07;;;9.30;99.90;;;;;;5053467;28;20354;-60
2023/10/26 06:11:16;;;;;;;18.93;14.53;;;9.30;99.90;;;;;;5046080;28;20590;-62
2023/10/26 06:13:42;;;;;;;17.27;13.50;;;9.30;99.90;;;;;;5045377;28;20177;-61
2023/10/26 06:16:12;;;;;;;17.97;13.73;;;9.30;99.90;;;;;;5053228;28;20485;-61
2023/10/26 06:18:38;;;;;;;18.90;13.13;;;9.20;99.90;;;;;;5053637;28;20182;-62
2023/10/26 06:21:04;;;;;;;16.40;12.50;;;9.20;99.90;;;;;;5053440;28;20413;-62
2023/10/26 06:23:30;;;;;;;16.37;11.93;;;9.20;99.90;;;;;;5053050;28;20426;-60
2023/10/26 06:26:00;;;;;;;16.93;13.13;;;9.30;99.90;;;;;;5053007;28;20865;-61
2023/10/26 06:28:26;;;;;;;14.60;10.57;;;9.30;99.90;;;;;;5050906;28;20635;-61
2023/10/26 06:30:52;;;;;;;14.03;11.80;;;9.30;99.90;;;;;;5053104;28;20505;-62
2023/10/26 06:33:17;;;;;;;14.10;11.90;;;9.30;99.90;;;;;;5052929;28;20201;-62
2023/10/26 06:35:43;;;;;;;15.30;12.30;;;9.30;99.90;;;;;;5052942;28;20193;-64
2023/10/26 06:38:09;;;;;;;17.97;12.00;;;9.30;99.90;;;;;;5053037;28;20178;-61
2023/10/26 06:40:34;;;;;;;17.57;11.57;;;9.30;99.90;;;;;;5052653;28;20252;-61
2023/10/26 06:43:00;;;;;;;17.97;13.77;;;9.40;99.90;;;;;;5052783;28;20240;-68
2023/10/26 06:45:26;;;;;;;17.00;12.70;;;9.40;99.90;;;;;;5050897;28;20198;-61
2023/10/26 06:47:51;;;;;;;17.00;13.13;;;9.30;99.90;;;;;;5052808;28;20457;-63
2023/10/26 06:50:17;;;;;;;15.90;12.00;;;9.30;99.90;;;;;;5052692;28;20200;-64
2023/10/26 06:52:43;;;;;;;17.87;12.77;;;9.30;99.90;;;;;;5052533;28;20209;-61
2023/10/26 06:55:14;;;;;;;18.20;13.60;;;9.30;99.90;;;;;;5045685;28;20632;-62
2023/10/26 06:57:40;;;;;;;20.27;13.33;;;9.30;99.90;;;;;;5052495;28;20923;-61
2023/10/26 07:00:07;;;;;;;13.43;11.43;;;9.30;99.90;;;;;;5072342;28;20428;-62
2023/10/26 07:02:32;;;;;;;15.63;11.20;;;9.40;99.90;;;;;;5058273;28;20436;-63
2023/10/26 07:04:59;;;;;;;15.20;10.60;;;9.30;99.90;;;;;;5051975;28;20457;-65
2023/10/26 07:07:26;;;;;;;16.13;12.90;;;9.40;99.90;;;;;;5052161;28;20206;-62
2023/10/26 07:09:52;;;;;;;17.00;12.47;;;9.30;99.90;;;;;;5052199;28;20416;-60
2023/10/26 07:12:17;;;;;;;17.30;12.63;;;9.30;99.90;;;;;;5064661;28;20407;-61
2023/10/26 07:14:43;;;;;;;18.00;12.83;;;9.40;99.90;;;;;;5071993;28;20463;-60
2023/10/26 07:17:09;;;;;;;17.67;12.83;;;9.40;99.90;;;;;;5055866;28;20236;-62
2023/10/26 07:19:34;;;;;;;17.73;12.73;;;9.40;99.90;;;;;;5051749;28;20174;-62
2023/10/26 07:22:00;;;;;;;22.13;13.90;;;9.30;99.90;;;;;;5048812;28;20734;-63
2023/10/26 07:24:25;;;;;;;21.00;12.20;;;9.40;99.90;;;;;;5051736;28;20190;-62
2023/10/26 07:26:52;;;;;;;17.00;13.03;;;9.40;99.90;;;;;;5052316;28;20249;-61
2023/10/26 07:29:17;;;;;;;17.27;13.60;;;9.40;99.90;;;;;;5049321;28;20178;-62
2023/10/26 07:31:44;;;;;;;16.70;13.20;;;9.40;99.90;;;;;;5051997;28;20413;-59
2023/10/26 07:34:10;;;;;;;15.00;13.07;;;9.40;99.90;;;;;;5048801;28;22922;-62
2023/10/26 07:36:36;;;;;;;19.60;14.43;;;9.40;99.90;;;;;;5048852;28;20492;-61
2023/10/26 07:39:01;;;;;;;16.77;12.07;;;9.50;99.90;;;;;;5052071;28;20677;-62
2023/10/26 07:41:27;;;;;;;17.40;13.47;;;9.60;99.90;;;;;;5050986;28;20180;-62
2023/10/26 07:43:53;;;;;;;18.70;13.67;;;9.60;99.90;;;;;;5051744;28;20175;-62
2023/10/26 07:46:20;;;;;;;18.60;13.77;;;9.50;99.90;;;;;;5051422;28;20249;-62
2023/10/26 07:48:45;;;;;;;16.77;13.37;;;9.50;99.90;;;;;;5051671;28;20198;-65
2023/10/26 07:51:11;;;;;;;17.30;12.20;;;9.60;99.90;;;;;;5051354;28;20456;-62
2023/10/26 07:53:36;;;;;;;19.83;15.30;;;9.60;99.90;;;;;;5046641;28;20236;-64
2023/10/26 07:56:02;;;;;;;16.20;13.00;;;9.50;99.90;;;;;;5046233;28;20572;-62
2023/10/26 07:58:30;;;;;;;15.57;11.87;;;9.60;99.90;;;;;;5051295;28;20175;-58
2023/10/26 08:00:56;;;;;;;17.03;13.43;;;9.60;99.90;;;;;;5051216;28;20220;-64
2023/10/26 08:03:24;;;;;;;19.80;13.20;;;9.60;99.90;;;;;;5064271;28;20415;-60
2023/10/26 08:06:00;;;;;;;18.93;14.17;;;9.50;99.90;;;;;;5070161;28;20459;-62
2023/10/26 08:08:26;;;;;;;19.03;12.87;;;9.60;99.90;;;;;;5070909;28;20415;-61
2023/10/26 08:10:52;;;;;;;16.80;13.00;;;9.50;99.90;;;;;;5070626;28;20412;-62
2023/10/26 08:13:17;;;;;;;20.27;14.03;;;9.50;99.90;;;;;;5061625;28;20973;-63
2023/10/26 08:15:44;;;;;;;18.60;12.97;;;9.60;99.90;;;;;;5049791;28;20194;-62
2023/10/26 08:18:11;;;;;;;20.93;13.87;;;9.60;99.90;;;;;;5047269;28;20293;-63
2023/10/26 08:20:38;;;;;;;17.20;13.20;;;9.60;99.90;;;;;;5050610;28;20413;-64
2023/10/26 08:23:03;;;;;;;16.47;12.70;;;9.60;99.90;;;;;;5050422;28;20433;-65
2023/10/26 08:25:29;;;;;;;17.10;13.53;;;9.70;99.90;;;;;;5050393;28;20483;-62
2023/10/26 08:27:54;;;;;;;17.47;14.20;;;9.70;99.90;;;;;;5050748;28;20213;-64
2023/10/26 08:30:20;;;;;;;19.33;14.00;;;9.70;99.90;;;;;;5050869;28;20645;-64
2023/10/26 08:32:49;;;;;;;16.60;13.40;;;9.70;99.90;;;;;;5050393;28;20293;-64
2023/10/26 08:35:14;;;;;;;18.37;14.43;;;9.70;99.90;;;;;;5045084;28;20456;-66
2023/10/26 08:37:40;;;;;;;19.93;13.13;;;9.60;99.90;;;;;;5048488;28;20421;-62
2023/10/26 08:40:11;;;;;;;20.43;14.57;;;9.70;99.90;;;;;;5050463;28;20282;-63
2023/10/26 08:42:38;;;;;;;20.50;14.10;;;9.80;99.90;;;;;;5050398;28;20202;-64
2023/10/26 08:45:10;;;;;;;19.27;11.50;;;9.90;99.90;;;;;;5050118;28;20457;-63
2023/10/26 08:47:36;;;;;;;18.40;13.80;;;9.90;99.90;;;;;;5050280;28;20552;-64
2023/10/26 08:50:03;;;;;;;16.23;12.63;;;9.80;99.90;;;;;;5050299;28;20549;-60
2023/10/26 08:52:28;;;;;;;19.13;12.27;;;9.90;99.90;;;;;;5052116;28;20178;-60
2023/10/26 08:54:55;;;;;;;18.47;12.60;;;9.90;99.90;;;;;;5052018;28;20429;-63
2023/10/26 08:57:21;;;;;;;18.40;12.03;;;10.00;99.90;;;;;;5051513;28;20254;-63
2023/10/26 08:59:47;;;;;;;15.63;12.47;;;9.90;99.90;;;;;;5053893;28;20504;-62
2023/10/26 09:02:12;;;;;;;20.47;14.80;;;10.00;99.90;;;;;;5057297;28;20198;-62
2023/10/26 09:04:38;;;;;;;21.70;14.70;;;10.00;99.90;;;;;;5074251;28;20625;-62
2023/10/26 09:07:03;;;;;;;21.60;13.20;;;10.00;99.90;;;;;;5057717;28;20199;-62
2023/10/26 09:09:43;;;;;;;16.03;12.47;;;10.00;99.90;;;;;;5036370;28;20163;-62
2023/10/26 09:12:09;;;;;;;15.83;12.50;;;10.00;99.90;;;;;;5053612;28;20312;-64
2023/10/26 09:14:37;;;;;;;17.43;13.87;;;10.00;99.90;;;;;;5047354;28;20456;-63
2023/10/26 09:17:04;;;;;;;17.90;13.20;;;10.10;99.90;;;;;;5050692;28;20440;-62
2023/10/26 09:19:37;;;;;;;16.97;13.00;;;10.10;99.90;;;;;;5061175;28;20427;-62
2023/10/26 09:22:07;;;;;;;14.77;11.40;;;10.20;99.90;;;;;;5069157;28;20867;-65
2023/10/26 09:24:33;;;;;;;14.63;11.83;;;10.10;99.90;;;;;;5036826;28;20463;-62
2023/10/26 09:27:03;;;;;;;18.70;13.47;;;10.10;99.90;;;;;;5040685;28;20869;-60
2023/10/26 09:29:39;;;;;;;15.67;12.80;;;10.00;99.90;;;;;;5050539;28;20672;-64
2023/10/26 09:32:06;;;;;;;15.73;12.57;;;10.10;99.90;;;;;;5053809;28;20409;-64
2023/10/26 09:34:41;;;;;;;16.27;13.00;;;10.10;99.90;;;;;;5060903;28;20408;-65
2023/10/26 09:37:07;;;;;;;15.00;11.57;;;10.10;99.90;;;;;;5055874;28;20423;-63
2023/10/26 09:39:35;;;;;;;14.93;11.73;;;10.00;99.90;;;;;;5073194;28;20411;-63
2023/10/26 09:42:01;;;;;;;13.20;11.47;;;10.10;99.90;;;;;;5073656;28;20501;-64
2023/10/26 09:44:31;;;;;;;11.63;9.70;;;10.00;99.90;;;;;;5062732;28;20443;-62
2023/10/26 09:46:58;;;;;;;14.40;12.67;;;10.10;99.90;;;;;;5055471;28;20476;-61
2023/10/26 09:49:25;;;;;;;13.73;11.67;;;10.10;99.90;;;;;;5044308;28;20774;-61
2023/10/26 09:51:51;;;;;;;14.87;10.77;;;10.10;99.90;;;;;;5041795;28;20414;-62
2023/10/26 09:54:26;;;;;;;15.00;10.50;;;10.20;99.90;;;;;;5045779;28;20501;-62
2023/10/26 09:56:59;;;;;;;14.23;10.77;;;10.20;99.90;;;;;;5051132;28;20452;-62
2023/10/26 09:59:26;;;;;;;15.57;10.63;;;10.20;99.90;;;;;;5052936;28;20442;-59
2023/10/26 10:01:52;;;;;;;17.50;12.37;;;10.30;99.90;;;;;;5052367;28;20416;-60
2023/10/26 10:04:37;;;;;;;13.10;9.50;;;10.20;99.90;;;;;;5072232;28;20409;-63
2023/10/26 10:07:03;;;;;;;13.63;10.20;;;10.20;99.90;;;;;;5057489;28;20297;-60
2023/10/26 10:09:29;;;;;;;11.23;9.70;;;10.20;99.90;;;;;;5052747;28;20509;-60
2023/10/26 10:12:04;;;;;;;14.57;10.00;;;10.20;99.90;;;;;;5052929;28;20441;-60
2023/10/26 10:15:06;;;;;;;14.20;10.53;;;10.30;99.90;;;;;;5050854;28;20433;-63
2023/10/26 10:17:58;;;;;;;15.20;9.87;;;10.30;99.90;;;;;;5048029;28;20935;-63
2023/10/26 10:20:23;;;;;;;11.63;9.50;;;10.40;99.90;;;;;;5043787;28;20424;-61
2023/10/26 10:22:52;;;;;;;10.03;9.00;;;10.40;99.90;;;;;;5052733;28;20413;-63
2023/10/26 10:25:18;;;;;;;12.03;9.67;;;10.40;99.90;;;;;;5052273;28;20195;-60
2023/10/26 10:27:49;;;;;;;11.63;9.17;;;10.40;99.90;;;;;;5052802;28;20461;-64
2023/10/26 10:30:21;;;;;;;16.93;13.10;;;10.40;99.90;;;;;;5050896;28;20425;-65
2023/10/26 10:32:51;;;;;;;15.70;12.20;;;10.40;99.90;;;;;;5052583;28;20464;-62
2023/10/26 10:35:39;;;;;;;15.17;11.43;;;10.40;99.90;;;;;;5052287;28;20944;-62
2023/10/26 10:38:11;;;;;;;13.80;11.80;;;10.50;99.90;;;;;;5052745;28;20445;-63
2023/10/26 10:40:38;;;;;;;11.93;10.67;;;10.40;99.90;;;;;;5052455;28;20413;-63
2023/10/26 10:43:04;;;;;;;18.03;11.83;;;10.50;99.90;;;;;;5063971;28;20447;-63
2023/10/26 10:45:30;;;;;;;13.67;11.70;;;10.60;99.90;;;;;;5072492;28;20511;-60
2023/10/26 10:47:56;;;;;;;14.30;12.17;;;10.50;99.90;;;;;;5058825;28;20540;-62
2023/10/26 10:50:26;;;;;;;15.57;13.03;;;10.70;99.90;;;;;;5051615;28;20206;-62
2023/10/26 10:52:54;;;;;;;15.87;13.27;;;10.60;99.90;;;;;;5047559;28;20175;-62
2023/10/26 10:55:30;;;;;;;16.70;13.43;;;10.70;99.90;;;;;;5051896;28;20445;-62
2023/10/26 10:58:03;;;;;;;16.60;12.07;;;10.70;99.90;;;;;;5027099;28;20516;-62
2023/10/26 11:00:44;;;;;;;14.80;12.10;;;10.70;99.90;;;;;;5048053;28;20989;-63
2023/10/26 11:03:18;;;;;;;17.60;12.83;;;10.70;99.90;;;;;;5061738;28;20781;-61
2023/10/26 11:05:44;;;;;;;16.50;13.80;;;10.60;99.90;;;;;;5071919;28;20533;-61
2023/10/26 11:08:10;;;;;;;17.10;12.70;;;10.50;99.90;;;;;;5071838;28;20488;-62
2023/10/26 11:10:36;;;;;;;18.37;14.00;;;10.60;99.90;;;;;;5052083;28;20202;-62
2023/10/26 11:13:02;;;;;;;17.20;13.40;;;10.70;99.90;;;;;;5050492;28;20178;-61
2023/10/26 11:15:33;;;;;;;14.90;12.80;;;10.70;99.90;;;;;;5051182;28;20417;-61
2023/10/26 11:18:00;;;;;;;16.77;11.97;;;10.60;99.90;;;;;;5043791;28;20504;-61
2023/10/26 11:20:36;;;;;;;20.70;13.17;;;10.60;99.90;;;;;;5052154;28;20424;-61
2023/10/26 11:23:03;;;;;;;15.13;13.03;;;10.70;99.90;;;;;;5051963;28;20432;-60
2023/10/26 11:25:28;;;;;;;19.77;13.13;;;10.70;99.90;;;;;;5051412;28;20471;-61
2023/10/26 11:27:54;;;;;;;15.20;11.50;;;10.70;99.90;;;;;;5051530;28;20936;-61
2023/10/26 11:30:19;;;;;;;15.53;12.03;;;10.70;99.90;;;;;;5039617;28;20220;-61
2023/10/26 11:32:46;;;;;;;14.90;11.73;;;10.70;99.90;;;;;;5065676;28;20638;-64
2023/10/26 11:35:16;;;;;;;17.07;11.13;;;10.70;99.90;;;;;;5061452;28;20198;-64
2023/10/26 11:37:47;;;;;;;13.70;10.60;;;10.70;99.90;;;;;;5051296;28;20417;-63
2023/10/26 11:40:15;;;;;;;11.70;9.90;;;10.60;99.90;;;;;;5059900;28;20413;-62
2023/10/26 11:42:53;;;;;;;13.80;10.93;;;10.50;99.90;;;;;;5070077;28;20450;-62
2023/10/26 11:45:20;;;;;;;12.03;10.73;;;10.40;99.90;;;;;;5054566;28;20444;-63
2023/10/26 11:47:54;;;;;;;12.77;10.77;;;10.50;99.90;;;;;;5051960;28;20456;-63
2023/10/26 11:50:23;;;;;;;12.13;10.83;;;10.60;99.90;;;;;;5024117;28;20448;-62
2023/10/26 11:52:51;;;;;;;15.13;10.80;;;10.60;99.90;;;;;;5064155;28;20491;-66
2023/10/26 11:55:17;;;;;;;17.10;10.87;;;10.60;99.90;;;;;;5045757;28;20954;-64
2023/10/26 11:57:45;;;;;;;12.90;9.47;;;10.60;99.90;;;;;;5050799;28;20413;-64
2023/10/26 12:00:11;;;;;;;12.93;10.43;;;10.70;99.90;;;;;;5047727;28;20425;-62
2023/10/26 12:02:38;;;;;;;13.70;10.97;;;10.70;99.90;;;;;;5046891;28;20486;-61
2023/10/26 12:05:06;;;;;;;15.23;10.43;;;10.70;99.90;;;;;;5019045;28;20459;-58
2023/10/26 12:07:31;;;;;;;13.43;10.93;;;10.90;99.90;;;;;;5047845;28;20837;-60
2023/10/26 12:09:57;;;;;;;12.40;10.17;;;11.00;99.90;;;;;;5058427;28;20462;-63
2023/10/26 12:12:22;;;;;;;13.70;9.57;;;10.80;99.90;;;;;;5060250;28;20178;-62
2023/10/26 12:14:48;;;;;;;11.00;9.70;;;10.90;99.90;;;;;;5064501;28;20645;-62
2023/10/26 12:17:14;;;;;;;10.43;9.33;;;10.80;99.90;;;;;;5054078;28;20186;-62
2023/10/26 12:19:39;;;;;;;11.47;8.90;;;10.80;99.90;;;;;;5066135;28;20186;-63
2023/10/26 12:22:05;;;;;;;11.10;9.93;;;10.80;99.90;;;;;;5045507;28;20176;-64
2023/10/26 12:24:30;;;;;;;11.73;9.60;;;10.80;99.90;;;;;;5062340;28;20174;-64
2023/10/26 12:26:57;;;;;;;11.07;8.40;;;10.90;99.90;;;;;;5055651;28;20245;-62
2023/10/26 12:29:22;;;;;;;10.03;8.93;;;10.90;99.90;;;;;;5074972;28;20173;-63
2023/10/26 12:31:48;;;;;;;10.37;8.13;;;10.90;99.90;;;;;;5074790;28;20416;-63
2023/10/26 12:34:14;;;;;;;8.83;7.37;;;10.90;99.90;;;;;;5074809;28;20162;-62